sensor_id;sensor_type;location;lat;lon;timestamp;pressure;altitude;pressure_sealevel;temperature;humidity
35704;BME280;21820;51.112;13.762;2023-05-10T00:01:14;98927.25;;;22.05;52.81
35704;BME280;21820;51.112;13.762;2023-05-10T00:03:39;98941.69;;;22.17;52.75
35704;BME280;21820;51.112;13.762;2023-05-10T00:06:05;98945.13;;;22.18;52.83
35704;BME280;21820;51.112;13.762;2023-05-10T00:08:30;98932.03;;;22.18;52.98
35704;BME280;21820;51.112;13.762;2023-05-10T00:10:55;98945.94;;;22.18;53.21
35704;BME280;21820;51.112;13.762;2023-05-10T00:13:21;98945.94;;;22.18;52.76
35704;BME280;21820;51.112;13.762;2023-05-10T00:15:46;98915.69;;;21.48;50.81
35704;BME280;21820;51.112;13.762;2023-05-10T00:18:11;98919.66;;;21.09;49.95
35704;BME280;21820;51.112;13.762;2023-05-10T00:20:36;98942.88;;;21.12;50.41
35704;BME280;21820;51.112;13.762;2023-05-10T00:23:02;98926.31;;;21.47;53.42
35704;BME280;21820;51.112;13.762;2023-05-10T00:25:27;98935.63;;;21.75;53.01
35704;BME280;21820;51.112;13.762;2023-05-10T00:27:52;98941.41;;;21.86;52.73
35704;BME280;21820;51.112;13.762;2023-05-10T00:30:20;98932.59;;;21.95;53.32
35704;BME280;21820;51.112;13.762;2023-05-10T00:32:45;98926.59;;;22.03;53.25
35704;BME280;21820;51.112;13.762;2023-05-10T00:35:10;98906.28;;;21.97;53.36
35704;BME280;21820;51.112;13.762;2023-05-10T00:37:36;98927.41;;;22.12;53.01
35704;BME280;21820;51.112;13.762;2023-05-10T00:40:01;98901.88;;;22.06;53.24
35704;BME280;21820;51.112;13.762;2023-05-10T00:42:26;98918.28;;;22.16;53.36
35704;BME280;21820;51.112;13.762;2023-05-10T00:44:51;98920.06;;;22.15;52.98
35704;BME280;21820;51.112;13.762;2023-05-10T00:47:17;98914.84;;;22.15;53.02
35704;BME280;21820;51.112;13.762;2023-05-10T00:49:42;98912.38;;;22.06;53.54
35704;BME280;21820;51.112;13.762;2023-05-10T00:52:08;98915.66;;;22.16;53.23
35704;BME280;21820;51.112;13.762;2023-05-10T00:54:34;98909.44;;;22.17;53.36
35704;BME280;21820;51.112;13.762;2023-05-10T00:56:59;98907.81;;;22.16;53.48
35704;BME280;21820;51.112;13.762;2023-05-10T00:59:24;98909.59;;;22.15;53.50
35704;BME280;21820;51.112;13.762;2023-05-10T01:01:50;98914.09;;;21.89;51.55
35704;BME280;21820;51.112;13.762;2023-05-10T01:04:16;98898.13;;;21.07;50.31
35704;BME280;21820;51.112;13.762;2023-05-10T01:06:41;98909.25;;;21.17;50.54
35704;BME280;21820;51.112;13.762;2023-05-10T01:09:07;98909.13;;;21.44;53.04
35704;BME280;21820;51.112;13.762;2023-05-10T01:11:33;98904.81;;;21.69;52.91
35704;BME280;21820;51.112;13.762;2023-05-10T01:13:59;98889.78;;;21.71;53.03
35704;BME280;21820;51.112;13.762;2023-05-10T01:16:24;98907.59;;;21.93;52.85
35704;BME280;21820;51.112;13.762;2023-05-10T01:18:50;98905.78;;;22.02;52.83
35704;BME280;21820;51.112;13.762;2023-05-10T01:24:06;98904.03;;;22.10;52.79
35704;BME280;21820;51.112;13.762;2023-05-10T01:34:27;98893.41;;;22.20;53.19
35704;BME280;21820;51.112;13.762;2023-05-10T01:37:02;98902.25;;;22.19;53.34
35704;BME280;21820;51.112;13.762;2023-05-10T01:39:54;98891.44;;;22.14;53.04
35704;BME280;21820;51.112;13.762;2023-05-10T01:42:23;98895.72;;;22.15;53.50
35704;BME280;21820;51.112;13.762;2023-05-10T01:47:35;98889.31;;;22.17;52.87
35704;BME280;21820;51.112;13.762;2023-05-10T01:50:03;98891.69;;;21.86;51.20
35704;BME280;21820;51.112;13.762;2023-05-10T01:52:33;98900.78;;;21.15;50.21
35704;BME280;21820;51.112;13.762;2023-05-10T01:55:05;98896.47;;;21.06;50.76
35704;BME280;21820;51.112;13.762;2023-05-10T01:57:32;98894.41;;;21.43;53.00
35704;BME280;21820;51.112;13.762;2023-05-10T01:59:57;98894.88;;;21.72;52.62
35704;BME280;21820;51.112;13.762;2023-05-10T02:02:24;98896.94;;;21.86;53.40
35704;BME280;21820;51.112;13.762;2023-05-10T02:04:51;98896.78;;;21.96;52.74
35704;BME280;21820;51.112;13.762;2023-05-10T02:07:18;98889.78;;;22.05;53.30
35704;BME280;21820;51.112;13.762;2023-05-10T02:09:44;98891.09;;;22.09;52.72
35704;BME280;21820;51.112;13.762;2023-05-10T02:12:12;98883.75;;;22.12;53.27
35704;BME280;21820;51.112;13.762;2023-05-10T02:14:38;98890.47;;;22.15;52.77
35704;BME280;21820;51.112;13.762;2023-05-10T02:17:05;98864.75;;;22.02;53.07
35704;BME280;21820;51.112;13.762;2023-05-10T02:19:32;98882.47;;;22.16;52.98
35704;BME280;21820;51.112;13.762;2023-05-10T02:21:59;98878.03;;;22.17;52.92
35704;BME280;21820;51.112;13.762;2023-05-10T02:24:25;98880.63;;;22.17;52.81
35704;BME280;21820;51.112;13.762;2023-05-10T02:26:51;98874.44;;;22.18;52.79
35704;BME280;21820;51.112;13.762;2023-05-10T02:29:18;98870.31;;;22.15;52.77
35704;BME280;21820;51.112;13.762;2023-05-10T02:31:44;98875.25;;;22.18;53.37
35704;BME280;21820;51.112;13.762;2023-05-10T02:34:10;98876.06;;;22.19;53.52
35704;BME280;21820;51.112;13.762;2023-05-10T02:36:37;98881.31;;;22.19;53.11
35704;BME280;21820;51.112;13.762;2023-05-10T02:39:03;98875.78;;;21.46;50.62
35704;BME280;21820;51.112;13.762;2023-05-10T02:41:30;98855.47;;;21.07;49.94
35704;BME280;21820;51.112;13.762;2023-05-10T02:43:56;98874.03;;;21.21;49.65
35704;BME280;21820;51.112;13.762;2023-05-10T02:46:24;98888.94;;;21.62;52.61
35704;BME280;21820;51.112;13.762;2023-05-10T02:48:49;98854.94;;;21.62;52.52
35704;BME280;21820;51.112;13.762;2023-05-10T02:51:15;98883.53;;;21.89;53.40
35704;BME280;21820;51.112;13.762;2023-05-10T02:53:43;98869.78;;;21.95;53.10
35704;BME280;21820;51.112;13.762;2023-05-10T02:56:12;98871.16;;;22.08;53.11
35704;BME280;21820;51.112;13.762;2023-05-10T02:58:38;98877.69;;;22.12;52.77
35704;BME280;21820;51.112;13.762;2023-05-10T03:01:03;98869.53;;;22.15;52.85
35704;BME280;21820;51.112;13.762;2023-05-10T03:03:28;98873.78;;;22.16;53.14
35704;BME280;21820;51.112;13.762;2023-05-10T03:05:54;98873.09;;;22.14;52.94
35704;BME280;21820;51.112;13.762;2023-05-10T03:08:21;98878.84;;;22.17;52.92
35704;BME280;21820;51.112;13.762;2023-05-10T03:10:59;98885.53;;;22.20;53.28
35704;BME280;21820;51.112;13.762;2023-05-10T03:13:32;98870.84;;;22.19;53.01
35704;BME280;21820;51.112;13.762;2023-05-10T03:16:05;98873.78;;;22.16;53.07
35704;BME280;21820;51.112;13.762;2023-05-10T03:20:59;98871.16;;;22.16;52.90
35704;BME280;21820;51.112;13.762;2023-05-10T03:23:30;98879.69;;;22.18;52.81
35704;BME280;21820;51.112;13.762;2023-05-10T03:25:59;98879.50;;;21.69;50.45
35704;BME280;21820;51.112;13.762;2023-05-10T03:28:24;98865.81;;;21.16;50.67
35704;BME280;21820;51.112;13.762;2023-05-10T03:30:51;98866.81;;;21.15;50.77
35704;BME280;21820;51.112;13.762;2023-05-10T03:33:17;98880.03;;;21.47;53.38
35704;BME280;21820;51.112;13.762;2023-05-10T03:35:42;98872.00;;;21.74;52.58
35704;BME280;21820;51.112;13.762;2023-05-10T03:38:10;98867.81;;;21.89;52.76
35704;BME280;21820;51.112;13.762;2023-05-10T03:40:35;98873.75;;;22.00;52.80
35704;BME280;21820;51.112;13.762;2023-05-10T03:43:01;98867.03;;;22.05;52.49
35704;BME280;21820;51.112;13.762;2023-05-10T03:45:26;98861.34;;;22.10;53.21
35704;BME280;21820;51.112;13.762;2023-05-10T03:47:51;98861.00;;;22.13;53.20
35704;BME280;21820;51.112;13.762;2023-05-10T03:50:17;98853.44;;;22.02;53.16
35704;BME280;21820;51.112;13.762;2023-05-10T03:52:43;98848.88;;;22.04;53.03
35704;BME280;21820;51.112;13.762;2023-05-10T03:55:09;98874.44;;;22.18;53.04
35704;BME280;21820;51.112;13.762;2023-05-10T03:57:34;98879.69;;;22.18;52.90
35704;BME280;21820;51.112;13.762;2023-05-10T04:00:00;98878.69;;;22.19;53.23
35704;BME280;21820;51.112;13.762;2023-05-10T04:02:25;98881.31;;;22.19;53.02
35704;BME280;21820;51.112;13.762;2023-05-10T04:04:50;98882.28;;;22.18;53.18
35704;BME280;21820;51.112;13.762;2023-05-10T04:07:16;98885.72;;;22.18;53.35
35704;BME280;21820;51.112;13.762;2023-05-10T04:09:41;98893.41;;;22.20;52.98
35704;BME280;21820;51.112;13.762;2023-05-10T04:12:06;98880.25;;;21.95;50.92
35704;BME280;21820;51.112;13.762;2023-05-10T04:14:32;98885.31;;;21.22;50.18
35704;BME280;21820;51.112;13.762;2023-05-10T04:16:57;98895.84;;;21.12;49.81
35704;BME280;21820;51.112;13.762;2023-05-10T04:19:22;98893.75;;;21.41;52.80
35704;BME280;21820;51.112;13.762;2023-05-10T04:21:48;98859.81;;;21.57;52.76
35704;BME280;21820;51.112;13.762;2023-05-10T04:24:13;98880.25;;;21.87;53.11
35704;BME280;21820;51.112;13.762;2023-05-10T04:26:38;98881.25;;;21.94;53.57
35704;BME280;21820;51.112;13.762;2023-05-10T04:29:03;98866.50;;;21.93;52.94
35704;BME280;21820;51.112;13.762;2023-05-10T04:31:29;98874.56;;;22.08;53.13
35704;BME280;21820;51.112;13.762;2023-05-10T04:33:54;98883.91;;;22.11;53.31
35704;BME280;21820;51.112;13.762;2023-05-10T04:36:19;98873.09;;;22.14;53.09
35704;BME280;21820;51.112;13.762;2023-05-10T04:38:45;98880.63;;;22.17;53.31
35704;BME280;21820;51.112;13.762;2023-05-10T04:41:10;98881.97;;;22.21;53.01
35704;BME280;21820;51.112;13.762;2023-05-10T04:43:36;98873.94;;;22.22;52.92
35704;BME280;21820;51.112;13.762;2023-05-10T04:46:02;98876.41;;;22.24;52.83
35704;BME280;21820;51.112;13.762;2023-05-10T04:48:27;98844.81;;;22.09;52.87
35704;BME280;21820;51.112;13.762;2023-05-10T04:50:52;98857.75;;;22.19;52.86
35704;BME280;21820;51.112;13.762;2023-05-10T04:53:18;98858.56;;;22.19;52.90
35704;BME280;21820;51.112;13.762;2023-05-10T04:55:43;98858.56;;;22.19;52.94
35704;BME280;21820;51.112;13.762;2023-05-10T04:58:08;98878.81;;;21.67;50.80
35704;BME280;21820;51.112;13.762;2023-05-10T05:00:34;98877.63;;;21.20;50.54
35704;BME280;21820;51.112;13.762;2023-05-10T05:02:59;98878.38;;;21.13;50.15
35704;BME280;21820;51.112;13.762;2023-05-10T05:05:24;98865.84;;;21.50;52.68
35704;BME280;21820;51.112;13.762;2023-05-10T05:07:50;98837.28;;;21.64;52.70
35704;BME280;21820;51.112;13.762;2023-05-10T05:10:15;98865.22;;;21.89;52.87
35704;BME280;21820;51.112;13.762;2023-05-10T05:12:41;98873.06;;;21.98;52.95
35704;BME280;21820;51.112;13.762;2023-05-10T05:15:06;98867.88;;;22.06;53.58
35704;BME280;21820;51.112;13.762;2023-05-10T05:17:33;98870.81;;;22.11;52.63
35704;BME280;21820;51.112;13.762;2023-05-10T05:19:58;98877.38;;;22.15;53.27
35704;BME280;21820;51.112;13.762;2023-05-10T05:22:23;98867.53;;;22.17;53.25
35704;BME280;21820;51.112;13.762;2023-05-10T05:24:55;98880.31;;;22.20;53.29
35704;BME280;21820;51.112;13.762;2023-05-10T05:27:20;98868.03;;;22.20;53.42
35704;BME280;21820;51.112;13.762;2023-05-10T05:29:49;98876.84;;;21.61;49.53
35704;BME280;21820;51.112;13.762;2023-05-10T05:32:14;98867.16;;;21.20;50.42
35704;BME280;21820;51.112;13.762;2023-05-10T05:34:39;98862.38;;;21.16;49.89
35704;BME280;21820;51.112;13.762;2023-05-10T05:37:04;98865.50;;;21.19;49.96
35704;BME280;21820;51.112;13.762;2023-05-10T05:39:29;98863.56;;;21.21;49.06
35704;BME280;21820;51.112;13.762;2023-05-10T05:41:55;98850.09;;;21.08;49.69
35704;BME280;21820;51.112;13.762;2023-05-10T05:44:20;98863.25;;;21.24;48.76
35704;BME280;21820;51.112;13.762;2023-05-10T05:46:45;98839.63;;;21.08;49.42
35704;BME280;21820;51.112;13.762;2023-05-10T05:49:10;98871.75;;;21.26;49.00
35704;BME280;21820;51.112;13.762;2023-05-10T05:51:35;98867.03;;;21.30;48.91
35704;BME280;21820;51.112;13.762;2023-05-10T05:54:01;98865.25;;;21.30;48.90
35704;BME280;21820;51.112;13.762;2023-05-10T05:56:26;98871.44;;;21.29;48.55
35704;BME280;21820;51.112;13.762;2023-05-10T05:58:52;98867.72;;;21.32;48.73
35704;BME280;21820;51.112;13.762;2023-05-10T06:01:17;98859.00;;;21.23;48.64
35704;BME280;21820;51.112;13.762;2023-05-10T06:03:42;98851.47;;;21.20;48.34
35704;BME280;21820;51.112;13.762;2023-05-10T06:06:07;98862.94;;;21.27;48.40
35704;BME280;21820;51.112;13.762;2023-05-10T06:08:33;98876.06;;;21.35;48.38
35704;BME280;21820;51.112;13.762;2023-05-10T06:10:59;98863.97;;;21.34;47.99
35704;BME280;21820;51.112;13.762;2023-05-10T06:13:24;98874.25;;;21.36;47.83
35704;BME280;21820;51.112;13.762;2023-05-10T06:15:49;98877.53;;;21.38;47.69
35704;BME280;21820;51.112;13.762;2023-05-10T06:18:15;98867.91;;;21.38;47.62
35704;BME280;21820;51.112;13.762;2023-05-10T06:20:41;98878.38;;;21.38;48.05
35704;BME280;21820;51.112;13.762;2023-05-10T06:23:06;98883.91;;;21.35;48.07
35704;BME280;21820;51.112;13.762;2023-05-10T06:25:31;98881.78;;;21.39;48.30
35704;BME280;21820;51.112;13.762;2023-05-10T06:27:56;98884.56;;;21.37;47.96
35704;BME280;21820;51.112;13.762;2023-05-10T06:30:23;98885.91;;;21.41;47.36
35704;BME280;21820;51.112;13.762;2023-05-10T06:32:52;98893.06;;;21.39;47.68
35704;BME280;21820;51.112;13.762;2023-05-10T06:35:17;98878.72;;;21.43;47.33
35704;BME280;21820;51.112;13.762;2023-05-10T06:37:42;98880.00;;;21.39;47.33
35704;BME280;21820;51.112;13.762;2023-05-10T06:40:08;98886.56;;;21.43;47.64
35704;BME280;21820;51.112;13.762;2023-05-10T06:42:34;98873.16;;;21.38;47.48
35704;BME280;21820;51.112;13.762;2023-05-10T06:44:59;98890.31;;;21.41;47.73
35704;BME280;21820;51.112;13.762;2023-05-10T06:47:24;98893.59;;;21.43;47.36
35704;BME280;21820;51.112;13.762;2023-05-10T06:49:49;98885.06;;;21.41;47.96
35704;BME280;21820;51.112;13.762;2023-05-10T06:52:15;98891.97;;;21.42;47.74
35704;BME280;21820;51.112;13.762;2023-05-10T06:54:40;98897.19;;;21.42;47.70
35704;BME280;21820;51.112;13.762;2023-05-10T06:57:05;98880.88;;;21.48;47.45
35704;BME280;21820;51.112;13.762;2023-05-10T06:59:31;98881.19;;;21.45;47.47
35704;BME280;21820;51.112;13.762;2023-05-10T07:01:56;98862.00;;;21.36;46.89
35704;BME280;21820;51.112;13.762;2023-05-10T07:04:21;98888.56;;;21.49;46.93
35704;BME280;21820;51.112;13.762;2023-05-10T07:06:47;98886.91;;;21.48;47.31
35704;BME280;21820;51.112;13.762;2023-05-10T07:09:12;98888.22;;;21.52;46.86
35704;BME280;21820;51.112;13.762;2023-05-10T07:11:38;98883.31;;;21.49;46.89
35704;BME280;21820;51.112;13.762;2023-05-10T07:14:03;98885.94;;;21.49;47.42
35704;BME280;21820;51.112;13.762;2023-05-10T07:16:29;98881.69;;;21.48;47.45
35704;BME280;21820;51.112;13.762;2023-05-10T07:18:54;98888.72;;;21.48;46.85
35704;BME280;21820;51.112;13.762;2023-05-10T07:21:19;98895.72;;;21.47;47.42
35704;BME280;21820;51.112;13.762;2023-05-10T07:23:44;98893.78;;;21.49;46.99
35704;BME280;21820;51.112;13.762;2023-05-10T07:26:10;98899.31;;;21.46;46.90
35704;BME280;21820;51.112;13.762;2023-05-10T07:28:36;98892.94;;;21.49;47.39
35704;BME280;21820;51.112;13.762;2023-05-10T07:31:02;98900.34;;;21.53;46.88
35704;BME280;21820;51.112;13.762;2023-05-10T07:33:27;98884.16;;;21.50;46.84
35704;BME280;21820;51.112;13.762;2023-05-10T07:35:53;98893.16;;;21.55;46.99
35704;BME280;21820;51.112;13.762;2023-05-10T07:38:18;98893.66;;;21.59;46.80
35704;BME280;21820;51.112;13.762;2023-05-10T07:40:43;98869.38;;;21.41;46.65
35704;BME280;21820;51.112;13.762;2023-05-10T07:43:08;98895.75;;;21.55;46.98
35704;BME280;21820;51.112;13.762;2023-05-10T07:45:34;98903.59;;;21.55;46.78
35704;BME280;21820;51.112;13.762;2023-05-10T07:47:59;98889.06;;;21.53;46.72
35704;BME280;21820;51.112;13.762;2023-05-10T07:50:24;98892.53;;;21.61;47.03
35704;BME280;21820;51.112;13.762;2023-05-10T07:52:50;98887.28;;;21.53;47.15
35704;BME280;21820;51.112;13.762;2023-05-10T07:55:15;98903.31;;;21.58;46.54
35704;BME280;21820;51.112;13.762;2023-05-10T07:57:41;98890.38;;;21.57;46.78
35704;BME280;21820;51.112;13.762;2023-05-10T08:00:07;98888.59;;;21.57;46.43
35704;BME280;21820;51.112;13.762;2023-05-10T08:02:33;98889.25;;;21.59;46.45
35704;BME280;21820;51.112;13.762;2023-05-10T08:04:58;98890.38;;;21.57;47.05
35704;BME280;21820;51.112;13.762;2023-05-10T08:07:24;98902.34;;;21.59;46.64
35704;BME280;21820;51.112;13.762;2023-05-10T08:09:49;98893.97;;;21.56;46.66
35704;BME280;21820;51.112;13.762;2023-05-10T08:12:14;98896.44;;;21.57;46.99
35704;BME280;21820;51.112;13.762;2023-05-10T08:14:40;98897.25;;;21.58;46.57
35704;BME280;21820;51.112;13.762;2023-05-10T08:17:05;98892.88;;;21.58;47.05
35704;BME280;21820;51.112;13.762;2023-05-10T08:19:30;98903.97;;;21.60;46.39
35704;BME280;21820;51.112;13.762;2023-05-10T08:21:56;98894.16;;;21.62;46.74
35704;BME280;21820;51.112;13.762;2023-05-10T08:24:22;98869.56;;;21.47;46.88
35704;BME280;21820;51.112;13.762;2023-05-10T08:26:47;98882.69;;;21.55;46.09
35704;BME280;21820;51.112;13.762;2023-05-10T08:29:13;98889.94;;;21.61;46.65
35704;BME280;21820;51.112;13.762;2023-05-10T08:31:38;98894.16;;;21.62;46.44
35704;BME280;21820;51.112;13.762;2023-05-10T08:34:03;98907.56;;;21.59;46.21
35704;BME280;21820;51.112;13.762;2023-05-10T08:36:28;98903.97;;;21.60;46.94
35704;BME280;21820;51.112;13.762;2023-05-10T08:38:53;98903.31;;;21.58;46.95
35704;BME280;21820;51.112;13.762;2023-05-10T08:41:20;98904.63;;;21.62;46.71
35704;BME280;21820;51.112;13.762;2023-05-10T08:43:46;98919.50;;;21.62;47.03
35704;BME280;21820;51.112;13.762;2023-05-10T08:46:12;98888.03;;;21.46;46.32
35704;BME280;21820;51.112;13.762;2023-05-10T08:48:40;98915.94;;;21.63;46.07
35704;BME280;21820;51.112;13.762;2023-05-10T08:51:06;98917.56;;;21.64;46.66
35704;BME280;21820;51.112;13.762;2023-05-10T08:53:33;98906.56;;;21.60;46.79
35704;BME280;21820;51.112;13.762;2023-05-10T08:56:01;98912.13;;;21.57;46.22
35704;BME280;21820;51.112;13.762;2023-05-10T08:58:26;98922.94;;;21.62;46.82
35704;BME280;21820;51.112;13.762;2023-05-10T09:00:52;98929.84;;;21.63;46.77
35704;BME280;21820;51.112;13.762;2023-05-10T09:03:17;98921.00;;;21.64;46.32
35704;BME280;21820;51.112;13.762;2023-05-10T09:05:42;98926.91;;;21.66;46.45
35704;BME280;21820;51.112;13.762;2023-05-10T09:08:09;98938.47;;;21.64;46.60
35704;BME280;21820;51.112;13.762;2023-05-10T09:10:35;98945.38;;;21.65;46.51
35704;BME280;21820;51.112;13.762;2023-05-10T09:13:01;98927.31;;;21.54;46.56
35704;BME280;21820;51.112;13.762;2023-05-10T09:15:27;98925.16;;;21.49;46.01
35704;BME280;21820;51.112;13.762;2023-05-10T09:17:53;98953.06;;;21.66;45.93
35704;BME280;21820;51.112;13.762;2023-05-10T09:20:19;98942.91;;;21.63;46.30
35704;BME280;21820;51.112;13.762;2023-05-10T09:22:45;98945.84;;;21.68;46.12
35704;BME280;21820;51.112;13.762;2023-05-10T09:25:11;98914.38;;;21.52;46.08
35704;BME280;21820;51.112;13.762;2023-05-10T09:27:37;98926.63;;;21.52;46.08
35704;BME280;21820;51.112;13.762;2023-05-10T09:30:03;98939.97;;;21.66;46.24
35704;BME280;21820;51.112;13.762;2023-05-10T09:32:42;98934.91;;;21.65;46.08
35704;BME280;21820;51.112;13.762;2023-05-10T09:35:14;98941.78;;;21.66;45.92
35704;BME280;21820;51.112;13.762;2023-05-10T09:37:40;98942.28;;;21.69;46.38
35704;BME280;21820;51.112;13.762;2023-05-10T09:40:06;98945.84;;;21.68;45.81
35704;BME280;21820;51.112;13.762;2023-05-10T09:42:33;98949.47;;;21.67;46.56
35704;BME280;21820;51.112;13.762;2023-05-10T09:45:02;98944.72;;;21.71;46.04
35704;BME280;21820;51.112;13.762;2023-05-10T09:47:27;98961.72;;;21.67;45.91
35704;BME280;21820;51.112;13.762;2023-05-10T09:49:52;98950.97;;;21.70;46.38
35704;BME280;21820;51.112;13.762;2023-05-10T09:52:18;98947.72;;;21.76;46.46
35704;BME280;21820;51.112;13.762;2023-05-10T09:54:53;98953.41;;;21.71;45.66
35704;BME280;21820;51.112;13.762;2023-05-10T09:57:22;98945.84;;;21.68;46.00
35704;BME280;21820;51.112;13.762;2023-05-10T09:59:47;98947.50;;;21.69;46.56
35704;BME280;21820;51.112;13.762;2023-05-10T10:02:13;98947.50;;;21.69;46.46
35704;BME280;21820;51.112;13.762;2023-05-10T10:04:39;98953.56;;;21.70;46.38
35704;BME280;21820;51.112;13.762;2023-05-10T10:07:04;98922.06;;;21.54;45.83
35704;BME280;21820;51.112;13.762;2023-05-10T10:09:30;98945.56;;;21.71;45.91
35704;BME280;21820;51.112;13.762;2023-05-10T10:11:55;98939.50;;;21.71;46.38
35704;BME280;21820;51.112;13.762;2023-05-10T10:14:22;98947.88;;;21.74;46.30
35704;BME280;21820;51.112;13.762;2023-05-10T10:16:48;98946.22;;;21.73;46.23
35704;BME280;21820;51.112;13.762;2023-05-10T10:19:14;98928.22;;;21.70;46.21
35704;BME280;21820;51.112;13.762;2023-05-10T10:21:39;98939.34;;;21.72;45.92
35704;BME280;21820;51.112;13.762;2023-05-10T10:24:05;98943.91;;;21.70;45.73
35704;BME280;21820;51.112;13.762;2023-05-10T10:26:32;98916.53;;;21.57;46.20
35704;BME280;21820;51.112;13.762;2023-05-10T10:34:31;98925.88;;;21.59;45.83
35704;BME280;21820;51.112;13.762;2023-05-10T10:36:57;98932.66;;;21.70;45.86
35704;BME280;21820;51.112;13.762;2023-05-10T10:39:23;98942.94;;;21.71;45.95
35704;BME280;21820;51.112;13.762;2023-05-10T10:41:53;98943.34;;;21.76;46.25
35704;BME280;21820;51.112;13.762;2023-05-10T10:49:50;98950.47;;;21.74;46.08
35704;BME280;21820;51.112;13.762;2023-05-10T10:52:24;98946.59;;;21.78;45.82
35704;BME280;21820;51.112;13.762;2023-05-10T10:54:52;98950.47;;;21.74;45.59
35704;BME280;21820;51.112;13.762;2023-05-10T10:57:18;98954.06;;;21.73;45.81
35704;BME280;21820;51.112;13.762;2023-05-10T10:59:44;98960.94;;;21.74;46.04
35704;BME280;21820;51.112;13.762;2023-05-10T11:02:09;98948.81;;;21.73;45.98
35704;BME280;21820;51.112;13.762;2023-05-10T11:04:41;98952.81;;;21.77;46.20
35704;BME280;21820;51.112;13.762;2023-05-10T11:07:17;98942.78;;;21.73;46.16
35704;BME280;21820;51.112;13.762;2023-05-10T11:09:42;98942.03;;;21.80;45.98
35704;BME280;21820;51.112;13.762;2023-05-10T11:12:08;98935.31;;;21.78;45.65
35704;BME280;21820;51.112;13.762;2023-05-10T11:14:33;98952.09;;;21.75;46.21
35704;BME280;21820;51.112;13.762;2023-05-10T11:16:59;98944.13;;;21.77;45.75
35704;BME280;21820;51.112;13.762;2023-05-10T11:19:27;98939.41;;;21.80;46.20
35704;BME280;21820;51.112;13.762;2023-05-10T11:24:30;98936.41;;;21.75;45.56
35704;BME280;21820;51.112;13.762;2023-05-10T11:26:55;98936.13;;;21.78;45.46
35704;BME280;21820;51.112;13.762;2023-05-10T11:29:21;98944.81;;;21.79;45.52
35704;BME280;21820;51.112;13.762;2023-05-10T11:31:47;98946.59;;;21.78;46.09
35704;BME280;21820;51.112;13.762;2023-05-10T11:34:28;98941.06;;;21.81;45.33
35704;BME280;21820;51.112;13.762;2023-05-10T11:36:55;98945.97;;;21.84;45.42
35704;BME280;21820;51.112;13.762;2023-05-10T11:39:21;98946.88;;;21.75;45.41
35704;BME280;21820;51.112;13.762;2023-05-10T11:41:49;98944.66;;;21.80;45.57
35704;BME280;21820;51.112;13.762;2023-05-10T11:44:15;98946.59;;;21.78;45.56
35704;BME280;21820;51.112;13.762;2023-05-10T11:46:40;98934.59;;;21.68;45.51
35704;BME280;21820;51.112;13.762;2023-05-10T11:49:06;98950.88;;;21.79;45.46
35704;BME280;21820;51.112;13.762;2023-05-10T11:51:35;98962.00;;;21.81;45.35
35704;BME280;21820;51.112;13.762;2023-05-10T11:54:01;98938.91;;;21.77;46.04
35704;BME280;21820;51.112;13.762;2023-05-10T11:56:29;98955.16;;;21.88;45.95
35704;BME280;21820;51.112;13.762;2023-05-10T11:58:57;98949.88;;;21.80;46.01
35704;BME280;21820;51.112;13.762;2023-05-10T12:01:23;98937.41;;;21.74;46.15
35704;BME280;21820;51.112;13.762;2023-05-10T12:03:49;98957.06;;;21.78;45.36
35704;BME280;21820;51.112;13.762;2023-05-10T12:06:15;98955.03;;;21.72;45.66
35704;BME280;21820;51.112;13.762;2023-05-10T12:08:44;98960.34;;;21.80;45.97
35704;BME280;21820;51.112;13.762;2023-05-10T12:11:09;98955.09;;;21.80;45.94
35704;BME280;21820;51.112;13.762;2023-05-10T12:13:40;98960.34;;;21.80;45.54
35704;BME280;21820;51.112;13.762;2023-05-10T12:16:13;98956.78;;;21.81;45.67
35704;BME280;21820;51.112;13.762;2023-05-10T12:18:38;98954.50;;;21.86;45.20
35704;BME280;21820;51.112;13.762;2023-05-10T12:21:04;98951.44;;;21.73;45.77
35704;BME280;21820;51.112;13.762;2023-05-10T12:23:30;98956.63;;;21.83;45.95
35704;BME280;21820;51.112;13.762;2023-05-10T12:26:01;98961.00;;;21.82;45.70
35704;BME280;21820;51.112;13.762;2023-05-10T12:28:26;98960.03;;;21.83;45.37
35704;BME280;21820;51.112;13.762;2023-05-10T12:30:54;98961.16;;;21.81;45.65
35704;BME280;21820;51.112;13.762;2023-05-10T12:33:19;98964.47;;;21.83;45.42
35704;BME280;21820;51.112;13.762;2023-05-10T12:35:46;98966.91;;;21.84;45.46
35704;BME280;21820;51.112;13.762;2023-05-10T12:38:28;98970.50;;;21.83;45.26
35704;BME280;21820;51.112;13.762;2023-05-10T12:40:55;98965.78;;;21.87;45.61
35704;BME280;21820;51.112;13.762;2023-05-10T12:43:20;98976.34;;;21.77;45.26
35704;BME280;21820;51.112;13.762;2023-05-10T12:45:45;98971.31;;;21.84;45.90
35704;BME280;21820;51.112;13.762;2023-05-10T12:48:13;98973.09;;;21.83;45.42
35704;BME280;21820;51.112;13.762;2023-05-10T12:50:38;98970.81;;;21.80;45.82
35704;BME280;21820;51.112;13.762;2023-05-10T12:53:03;98974.09;;;21.82;45.81
35704;BME280;21820;51.112;13.762;2023-05-10T12:55:28;98979.34;;;21.82;45.79
35704;BME280;21820;51.112;13.762;2023-05-10T12:57:53;98967.91;;;21.91;45.24
35704;BME280;21820;51.112;13.762;2023-05-10T13:00:19;98975.44;;;21.86;45.84
35704;BME280;21820;51.112;13.762;2023-05-10T13:02:44;98979.84;;;21.86;45.89
35704;BME280;21820;51.112;13.762;2023-05-10T13:05:09;98981.78;;;21.84;45.38
35704;BME280;21820;51.112;13.762;2023-05-10T13:07:34;98981.47;;;21.87;45.29
35704;BME280;21820;51.112;13.762;2023-05-10T13:10:00;98989.16;;;21.88;46.03
35704;BME280;21820;51.112;13.762;2023-05-10T13:12:25;98984.75;;;21.89;45.29
35704;BME280;21820;51.112;13.762;2023-05-10T13:14:50;98957.66;;;21.72;45.46